createdAt,value
2017-06-26T00:01:33.081Z,15.40
2017-06-26T00:03:59.256Z,15.30
2017-06-26T00:06:25.465Z,15.30
2017-06-26T00:08:52.387Z,15.30
2017-06-26T00:11:18.587Z,15.30
2017-06-26T00:13:44.761Z,15.50
2017-06-26T00:16:11.691Z,15.40
2017-06-26T00:18:37.874Z,15.40
2017-06-26T00:21:04.095Z,15.20
2017-06-26T00:23:30.268Z,15.30
2017-06-26T00:25:56.437Z,15.40
2017-06-26T00:28:22.636Z,15.30
2017-06-26T00:30:49.560Z,15.10
2017-06-26T00:33:15.752Z,15.10
2017-06-26T00:35:41.928Z,15.00
2017-06-26T00:38:08.866Z,14.60
2017-06-26T00:40:35.029Z,14.60
2017-06-26T00:43:01.221Z,14.60
2017-06-26T00:45:27.431Z,14.60
2017-06-26T00:47:53.599Z,14.70
2017-06-26T00:50:19.800Z,14.80
2017-06-26T00:52:45.975Z,14.70
2017-06-26T00:55:12.147Z,14.70
2017-06-26T00:57:38.339Z,14.70
2017-06-26T01:00:04.541Z,14.80
2017-06-26T01:02:30.815Z,14.80
2017-06-26T01:04:57.008Z,15.00
2017-06-26T01:07:23.227Z,15.00
2017-06-26T01:09:49.405Z,15.00
2017-06-26T01:12:15.592Z,14.90
2017-06-26T01:14:41.788Z,15.00
2017-06-26T01:17:07.969Z,15.10
2017-06-26T01:19:34.151Z,14.80
2017-06-26T01:22:00.396Z,14.50
2017-06-26T01:24:26.601Z,14.30
2017-06-26T01:26:52.772Z,14.30
2017-06-26T01:29:18.935Z,14.50
2017-06-26T01:31:45.903Z,14.00
2017-06-26T01:34:12.115Z,14.00
2017-06-26T01:36:39.068Z,14.40
2017-06-26T01:39:05.252Z,14.40
2017-06-26T01:41:31.469Z,14.40
2017-06-26T01:43:57.667Z,14.50
2017-06-26T01:46:23.905Z,14.60
2017-06-26T01:48:50.100Z,14.60
2017-06-26T01:51:16.320Z,14.30
2017-06-26T01:53:43.300Z,14.20
2017-06-26T01:56:09.470Z,14.20
2017-06-26T01:58:35.688Z,14.20
2017-06-26T02:01:01.865Z,14.20
2017-06-26T02:03:28.098Z,14.20
2017-06-26T02:05:54.260Z,14.30
2017-06-26T02:08:20.428Z,14.50
2017-06-26T02:10:47.372Z,14.50
2017-06-26T02:13:13.538Z,14.50
2017-06-26T02:15:39.730Z,14.50
2017-06-26T02:18:05.916Z,14.40
2017-06-26T02:20:32.119Z,14.60
2017-06-26T02:22:58.327Z,14.60
2017-06-26T02:25:24.504Z,14.30
2017-06-26T02:27:50.705Z,14.40
2017-06-26T02:30:16.875Z,14.30
2017-06-26T02:32:43.789Z,14.20
2017-06-26T02:35:09.984Z,14.20
2017-06-26T02:37:36.155Z,14.30
2017-06-26T02:40:02.407Z,14.30
2017-06-26T02:42:29.318Z,14.30
2017-06-26T02:44:55.504Z,14.30
2017-06-26T02:47:21.691Z,14.30
2017-06-26T02:49:48.636Z,14.10
2017-06-26T02:52:15.609Z,13.80
2017-06-26T02:54:41.808Z,13.80
2017-06-26T02:57:07.992Z,13.80
2017-06-26T02:59:34.465Z,13.90
2017-06-26T03:02:00.656Z,14.00
2017-06-26T03:04:26.823Z,14.10
2017-06-26T03:06:53.755Z,14.00
2017-06-26T03:09:19.939Z,14.00
2017-06-26T03:11:56.487Z,14.00
2017-06-26T03:14:22.651Z,14.10
2017-06-26T03:16:48.856Z,14.10
2017-06-26T03:19:15.024Z,14.10
2017-06-26T03:21:41.216Z,14.00
2017-06-26T03:24:07.411Z,13.80
2017-06-26T03:26:34.352Z,13.70
2017-06-26T03:29:01.260Z,13.60
2017-06-26T03:31:28.217Z,13.70
2017-06-26T03:33:54.387Z,13.70
2017-06-26T03:36:20.621Z,13.80
2017-06-26T03:38:46.807Z,13.80
2017-06-26T03:41:12.997Z,13.90
2017-06-26T03:43:39.182Z,13.90
2017-06-26T03:46:05.379Z,14.00
2017-06-26T03:48:31.552Z,14.10
2017-06-26T03:50:57.789Z,13.90
2017-06-26T03:53:23.977Z,14.00
2017-06-26T03:55:50.156Z,14.30
2017-06-26T03:58:16.354Z,14.20
2017-06-26T04:00:42.588Z,14.20
2017-06-26T04:03:08.815Z,14.10
2017-06-26T04:05:34.987Z,13.80
2017-06-26T04:08:01.180Z,13.90
2017-06-26T04:10:27.354Z,14.00
2017-06-26T04:12:54.279Z,14.20
2017-06-26T04:15:20.452Z,14.20
2017-06-26T04:17:46.709Z,14.20
2017-06-26T04:20:12.884Z,14.40
2017-06-26T04:22:39.815Z,14.60
2017-06-26T04:25:06.081Z,14.60
2017-06-26T04:27:32.269Z,14.80
2017-06-26T04:29:58.451Z,15.00
2017-06-26T04:32:24.624Z,15.30
2017-06-26T04:34:50.854Z,15.30
2017-06-26T04:37:17.036Z,15.50
2017-06-26T04:39:43.267Z,15.60
2017-06-26T04:42:09.496Z,15.70
2017-06-26T04:44:35.692Z,15.90
2017-06-26T04:47:01.891Z,16.20
2017-06-26T04:49:28.817Z,16.60
2017-06-26T04:51:55.017Z,16.60
2017-06-26T04:54:21.195Z,16.80
2017-06-26T04:56:47.361Z,17.00
2017-06-26T04:59:13.552Z,17.20
2017-06-26T05:01:40.465Z,17.60
2017-06-26T05:04:06.668Z,17.60
2017-06-26T05:06:32.877Z,17.70
2017-06-26T05:08:59.101Z,17.90
2017-06-26T05:11:25.275Z,18.10
2017-06-26T05:13:51.485Z,18.30
2017-06-26T05:16:17.675Z,18.50
2017-06-26T05:18:43.852Z,18.70
2017-06-26T05:21:10.060Z,18.80
2017-06-26T05:23:36.284Z,19.00
2017-06-26T05:26:02.491Z,19.10
2017-06-26T05:28:28.668Z,19.20
2017-06-26T05:30:54.848Z,19.40
2017-06-26T05:33:21.040Z,19.60
2017-06-26T05:35:47.232Z,19.80
2017-06-26T05:38:13.435Z,19.90
2017-06-26T05:40:39.608Z,20.10
2017-06-26T05:43:05.923Z,20.40
2017-06-26T05:45:32.099Z,20.50
2017-06-26T05:47:58.255Z,20.70
2017-06-26T05:50:24.468Z,20.90
2017-06-26T05:52:50.643Z,21.10
2017-06-26T05:55:16.847Z,21.40
2017-06-26T05:57:43.019Z,21.60
2017-06-26T06:00:10.011Z,22.00
2017-06-26T06:02:36.207Z,22.00
2017-06-26T06:05:02.396Z,22.10
2017-06-26T06:07:28.604Z,22.40
2017-06-26T06:09:54.783Z,22.60
2017-06-26T06:12:21.003Z,22.90
2017-06-26T06:14:47.192Z,23.00
2017-06-26T06:17:13.373Z,23.10
2017-06-26T06:19:39.587Z,23.00
2017-06-26T06:22:05.797Z,23.00
2017-06-26T06:24:32.759Z,23.20
2017-06-26T06:26:58.953Z,23.20
2017-06-26T06:29:25.137Z,23.40
2017-06-26T06:31:51.353Z,23.60
2017-06-26T06:34:17.527Z,23.80
2017-06-26T06:36:43.722Z,23.70
2017-06-26T06:39:09.975Z,24.00
2017-06-26T06:41:36.172Z,24.20
2017-06-26T06:44:02.382Z,24.40
2017-06-26T06:46:28.605Z,24.60
2017-06-26T06:48:54.812Z,24.80
2017-06-26T06:51:21.731Z,25.40
2017-06-26T06:53:47.935Z,25.40
2017-06-26T06:56:14.099Z,25.80
2017-06-26T06:58:40.307Z,26.20
2017-06-26T07:01:06.481Z,26.20
2017-06-26T07:03:32.653Z,26.30
2017-06-26T07:05:58.843Z,26.50
2017-06-26T07:08:25.056Z,26.50
2017-06-26T07:10:51.251Z,26.90
2017-06-26T07:13:17.417Z,27.10
2017-06-26T07:15:43.636Z,27.00
2017-06-26T07:18:09.807Z,27.00
2017-06-26T07:20:35.984Z,27.10
2017-06-26T07:23:02.955Z,27.40
2017-06-26T07:25:29.111Z,27.40
2017-06-26T07:27:55.319Z,27.80
2017-06-26T07:30:21.544Z,28.20
2017-06-26T07:32:47.725Z,28.40
2017-06-26T07:35:14.667Z,29.30
2017-06-26T07:37:41.623Z,29.20
2017-06-26T07:40:07.799Z,29.10
2017-06-26T07:42:34.024Z,28.90
2017-06-26T07:45:00.216Z,29.30
2017-06-26T07:47:26.387Z,29.60
2017-06-26T07:49:52.579Z,30.10
2017-06-26T07:52:18.774Z,30.30
2017-06-26T07:54:44.991Z,30.50
2017-06-26T07:57:11.208Z,30.30
2017-06-26T07:59:37.420Z,30.60
2017-06-26T08:02:03.634Z,30.60
2017-06-26T08:04:29.876Z,31.00
2017-06-26T08:06:56.089Z,31.40
2017-06-26T08:09:22.280Z,31.40
2017-06-26T08:11:48.447Z,31.60
2017-06-26T08:14:14.778Z,32.10
2017-06-26T08:16:40.955Z,32.60
2017-06-26T08:19:07.904Z,32.90
2017-06-26T08:21:34.810Z,33.30
2017-06-26T08:24:01.004Z,33.20
2017-06-26T08:26:27.212Z,32.50
2017-06-26T08:28:53.391Z,32.40
2017-06-26T08:31:19.612Z,32.70
2017-06-26T08:33:45.815Z,32.70
2017-06-26T08:36:11.996Z,31.60
2017-06-26T08:38:38.931Z,32.80
2017-06-26T08:41:05.162Z,32.80
2017-06-26T08:43:32.092Z,32.70
2017-06-26T08:45:58.261Z,32.70
2017-06-26T08:48:24.483Z,34.00
2017-06-26T08:50:50.820Z,34.50
2017-06-26T08:53:16.995Z,31.80
2017-06-26T08:55:43.166Z,32.00
2017-06-26T08:58:09.375Z,33.10
2017-06-26T09:00:36.287Z,33.80
2017-06-26T09:03:02.512Z,33.80
2017-06-26T09:05:28.691Z,33.90
2017-06-26T09:07:54.898Z,34.10
2017-06-26T09:10:21.097Z,34.30
2017-06-26T09:12:47.272Z,34.50
2017-06-26T09:15:13.503Z,35.40
2017-06-26T09:17:39.685Z,36.50
2017-06-26T09:20:05.856Z,36.30
2017-06-26T09:22:32.140Z,33.00
2017-06-26T09:24:58.307Z,32.80
2017-06-26T09:27:24.486Z,34.00
2017-06-26T09:29:50.707Z,35.40
2017-06-26T09:32:16.883Z,36.60
2017-06-26T09:34:43.071Z,37.00
2017-06-26T09:37:09.235Z,37.50
2017-06-26T09:39:35.439Z,37.90
2017-06-26T09:42:02.411Z,38.10
2017-06-26T09:44:28.611Z,38.10
2017-06-26T09:46:55.611Z,38.30
2017-06-26T09:49:21.875Z,38.20
2017-06-26T09:51:48.072Z,38.40
2017-06-26T09:54:14.249Z,38.00
2017-06-26T09:56:41.199Z,37.70
2017-06-26T09:59:07.387Z,37.60
2017-06-26T10:01:33.567Z,38.10
2017-06-26T10:03:59.891Z,38.80
2017-06-26T10:06:26.060Z,38.50
2017-06-26T10:08:52.291Z,38.80
2017-06-26T10:11:18.476Z,39.10
2017-06-26T10:13:44.644Z,39.40
2017-06-26T10:16:10.845Z,39.90
2017-06-26T10:18:37.060Z,38.60
2017-06-26T10:21:03.273Z,37.50
2017-06-26T10:23:30.196Z,38.00
2017-06-26T10:25:56.405Z,38.00
2017-06-26T10:28:22.583Z,38.00
2017-06-26T10:30:48.804Z,38.10
2017-06-26T10:33:15.008Z,37.40
2017-06-26T10:35:41.176Z,37.90
2017-06-26T10:38:07.389Z,38.60
2017-06-26T10:40:34.412Z,39.00
2017-06-26T10:43:00.623Z,39.10
2017-06-26T10:45:26.819Z,39.70
2017-06-26T10:47:52.987Z,40.10
2017-06-26T10:50:19.947Z,39.90
2017-06-26T10:52:46.875Z,39.50
2017-06-26T10:55:13.832Z,39.50
2017-06-26T10:57:40.008Z,39.50
2017-06-26T11:00:06.220Z,40.20
2017-06-26T11:02:32.424Z,40.00
2017-06-26T11:04:58.624Z,38.50
2017-06-26T11:07:24.819Z,38.80
2017-06-26T11:09:51.015Z,37.40
2017-06-26T11:12:17.240Z,38.10
2017-06-26T11:14:43.395Z,38.50
2017-06-26T11:17:09.567Z,38.40
2017-06-26T11:19:36.528Z,37.90
2017-06-26T11:22:02.705Z,37.90
2017-06-26T11:24:28.921Z,37.60
2017-06-26T11:26:55.168Z,37.10
2017-06-26T11:29:21.372Z,37.00
2017-06-26T11:31:47.552Z,36.70
2017-06-26T11:34:13.739Z,36.80
2017-06-26T11:36:39.986Z,36.30
2017-06-26T11:39:06.183Z,35.90
2017-06-26T11:41:32.353Z,35.50
2017-06-26T11:43:59.304Z,33.40
2017-06-26T11:46:25.557Z,33.50
2017-06-26T11:48:51.760Z,32.50
2017-06-26T11:51:18.764Z,30.80
2017-06-26T11:53:44.985Z,30.80
2017-06-26T11:56:11.164Z,32.00
2017-06-26T11:58:37.375Z,32.80
2017-06-26T12:01:03.555Z,33.30
2017-06-26T12:03:29.740Z,33.50
2017-06-26T12:05:56.687Z,33.70
2017-06-26T12:08:22.939Z,33.70
2017-06-26T12:10:49.151Z,33.50
2017-06-26T12:13:15.328Z,32.60
2017-06-26T12:15:41.567Z,32.80
2017-06-26T12:18:07.754Z,32.90
2017-06-26T12:20:33.919Z,32.80
2017-06-26T12:23:00.160Z,31.20
2017-06-26T12:25:27.116Z,31.80
2017-06-26T12:27:54.027Z,31.90
2017-06-26T12:30:20.228Z,31.90
2017-06-26T12:32:46.428Z,32.20
2017-06-26T12:35:12.605Z,32.00
2017-06-26T12:37:38.825Z,31.80
2017-06-26T12:40:05.073Z,31.90
2017-06-26T12:42:31.379Z,32.00
2017-06-26T12:44:57.559Z,32.00
2017-06-26T12:47:23.856Z,31.70
2017-06-26T12:49:50.199Z,31.60
2017-06-26T12:52:17.123Z,31.60
2017-06-26T12:54:43.412Z,31.60
2017-06-26T12:57:09.607Z,31.70
2017-06-26T12:59:36.564Z,31.60
2017-06-26T13:02:02.779Z,31.60
2017-06-26T13:04:29.699Z,31.70
2017-06-26T13:06:55.959Z,31.70
2017-06-26T13:09:22.147Z,31.30
2017-06-26T13:11:48.333Z,31.40
2017-06-26T13:14:14.612Z,31.50
2017-06-26T13:16:40.832Z,31.50
2017-06-26T13:19:07.016Z,31.60
2017-06-26T13:21:33.285Z,31.50
2017-06-26T13:23:59.566Z,31.30
2017-06-26T13:26:25.858Z,31.20
2017-06-26T13:28:52.083Z,31.20
2017-06-26T13:31:18.350Z,31.20
2017-06-26T13:33:44.547Z,31.10
2017-06-26T13:36:10.731Z,30.80
2017-06-26T13:38:36.961Z,30.70
2017-06-26T13:41:03.629Z,30.80
2017-06-26T13:43:29.931Z,30.90
2017-06-26T13:45:56.116Z,30.80
2017-06-26T13:48:22.336Z,30.50
2017-06-26T13:50:48.543Z,30.60
2017-06-26T13:53:14.759Z,30.70
2017-06-26T13:55:40.947Z,30.60
2017-06-26T13:58:07.164Z,30.60
2017-06-26T14:00:33.353Z,30.50
2017-06-26T14:03:00.317Z,30.20
2017-06-26T14:05:26.508Z,30.20
2017-06-26T14:07:52.780Z,30.10
2017-06-26T14:10:18.956Z,30.10
2017-06-26T14:12:45.152Z,30.00
2017-06-26T14:15:11.402Z,29.70
2017-06-26T14:17:37.587Z,28.60
2017-06-26T14:20:03.824Z,28.90
2017-06-26T14:22:30.056Z,29.20
2017-06-26T14:24:56.286Z,29.20
2017-06-26T14:27:22.512Z,29.10
2017-06-26T14:29:48.699Z,28.80
2017-06-26T14:32:15.649Z,28.70
2017-06-26T14:34:42.621Z,29.10
2017-06-26T14:37:08.809Z,29.10
2017-06-26T14:39:35.028Z,29.30
2017-06-26T14:42:01.281Z,29.20
2017-06-26T14:44:28.221Z,29.20
2017-06-26T14:46:55.163Z,29.40
2017-06-26T14:49:22.143Z,29.30
2017-06-26T14:51:48.385Z,29.30
2017-06-26T14:54:14.611Z,29.40
2017-06-26T14:56:40.811Z,29.50
2017-06-26T14:59:07.007Z,29.10
2017-06-26T15:01:33.228Z,29.30
2017-06-26T15:03:59.424Z,29.50
2017-06-26T15:06:25.661Z,29.30
2017-06-26T15:08:51.843Z,29.60
2017-06-26T15:11:18.057Z,29.40
2017-06-26T15:13:45.033Z,29.70
2017-06-26T15:16:11.232Z,29.70
2017-06-26T15:18:37.423Z,29.80
2017-06-26T15:21:03.654Z,29.80
2017-06-26T15:23:29.864Z,29.80
2017-06-26T15:25:56.108Z,29.60
2017-06-26T15:28:22.302Z,29.70
2017-06-26T15:30:48.491Z,29.60
2017-06-26T15:33:15.448Z,29.50
2017-06-26T15:35:41.703Z,29.50
2017-06-26T15:38:07.931Z,29.40
2017-06-26T15:40:34.116Z,29.30
2017-06-26T15:43:00.395Z,29.30
2017-06-26T15:45:26.570Z,29.30
2017-06-26T15:47:53.471Z,29.40
2017-06-26T15:50:19.691Z,29.40
2017-06-26T15:52:45.915Z,29.50
2017-06-26T15:55:12.100Z,29.40
2017-06-26T15:57:39.051Z,29.60
2017-06-26T16:00:05.240Z,29.60
2017-06-26T16:02:31.496Z,29.70
2017-06-26T16:04:58.420Z,29.50
2017-06-26T16:07:24.614Z,29.50
2017-06-26T16:09:50.827Z,29.50
2017-06-26T16:12:17.035Z,29.40
2017-06-26T16:14:43.260Z,29.40
2017-06-26T16:17:09.513Z,29.40
2017-06-26T16:19:35.732Z,29.40
2017-06-26T16:22:01.953Z,29.30
2017-06-26T16:24:28.166Z,29.30
2017-06-26T16:26:54.352Z,29.30
2017-06-26T16:29:20.560Z,29.30
2017-06-26T16:31:46.770Z,29.20
2017-06-26T16:34:12.984Z,29.20
2017-06-26T16:36:39.231Z,29.10
2017-06-26T16:39:05.413Z,28.80
2017-06-26T16:41:32.376Z,28.80
2017-06-26T16:43:58.615Z,28.80
2017-06-26T16:46:24.876Z,28.90
2017-06-26T16:48:52.806Z,28.80
2017-06-26T16:51:20.613Z,28.60
2017-06-26T16:53:48.210Z,28.60
2017-06-26T16:56:16.924Z,28.70
2017-06-26T16:58:43.186Z,28.70
2017-06-26T17:01:09.403Z,28.60
2017-06-26T17:03:35.602Z,28.70
2017-06-26T17:06:01.800Z,28.80
2017-06-26T17:08:28.026Z,28.70
2017-06-26T17:10:55.052Z,28.50
2017-06-26T17:13:21.250Z,28.60
2017-06-26T17:15:47.431Z,28.50
2017-06-26T17:18:14.426Z,28.50
2017-06-26T17:20:40.631Z,28.40
2017-06-26T17:23:06.828Z,28.60
2017-06-26T17:25:33.772Z,28.50
2017-06-26T17:28:00.749Z,28.50
2017-06-26T17:30:27.009Z,28.50
2017-06-26T17:32:53.195Z,28.40
2017-06-26T17:35:19.413Z,28.20
2017-06-26T17:37:45.727Z,28.20
2017-06-26T17:40:12.672Z,28.30
2017-06-26T17:42:39.593Z,28.30
2017-06-26T17:45:05.804Z,28.20
2017-06-26T17:47:32.002Z,28.20
2017-06-26T17:49:59.145Z,28.10
2017-06-26T17:52:25.400Z,27.90
2017-06-26T17:54:51.619Z,27.80
2017-06-26T17:57:17.802Z,27.60
2017-06-26T17:59:44.732Z,27.20
2017-06-26T18:02:10.932Z,27.20
2017-06-26T18:04:37.110Z,27.20
2017-06-26T18:07:03.319Z,27.30
2017-06-26T18:09:30.247Z,27.10
2017-06-26T18:11:56.551Z,27.10
2017-06-26T18:14:22.755Z,27.00
2017-06-26T18:16:48.997Z,26.70
2017-06-26T18:19:15.200Z,26.60
2017-06-26T18:21:41.397Z,26.60
2017-06-26T18:24:07.611Z,26.50
2017-06-26T18:26:33.811Z,26.40
2017-06-26T18:29:00.060Z,26.40
2017-06-26T18:31:26.276Z,26.30
2017-06-26T18:33:52.504Z,26.20
2017-06-26T18:36:18.749Z,26.10
2017-06-26T18:38:44.933Z,26.00
2017-06-26T18:41:11.176Z,26.10
2017-06-26T18:43:37.408Z,25.80
2017-06-26T18:46:03.628Z,25.80
2017-06-26T18:48:29.820Z,25.80
2017-06-26T18:50:56.070Z,25.80
2017-06-26T18:53:22.312Z,25.80
2017-06-26T18:55:48.505Z,25.70
2017-06-26T18:58:14.696Z,25.70
2017-06-26T19:00:40.937Z,25.60
2017-06-26T19:03:07.883Z,25.50
2017-06-26T19:05:34.060Z,25.50
2017-06-26T19:08:00.278Z,25.50
2017-06-26T19:10:26.564Z,25.40
2017-06-26T19:12:53.550Z,25.30
2017-06-26T19:15:19.731Z,25.30
2017-06-26T19:17:45.980Z,25.30
2017-06-26T19:20:12.945Z,25.20
2017-06-26T19:22:39.120Z,25.20
2017-06-26T19:25:05.331Z,25.20
2017-06-26T19:27:31.507Z,25.20
2017-06-26T19:29:57.676Z,25.20
2017-06-26T19:32:23.907Z,25.30
2017-06-26T19:34:50.116Z,25.30
2017-06-26T19:37:16.276Z,25.30
2017-06-26T19:39:42.587Z,25.20
2017-06-26T19:42:08.785Z,25.10
2017-06-26T19:44:35.020Z,24.90
2017-06-26T19:47:01.232Z,24.60
2017-06-26T19:49:27.432Z,24.50
2017-06-26T19:51:53.619Z,24.60
2017-06-26T19:54:19.913Z,24.60
2017-06-26T19:56:46.080Z,24.70
2017-06-26T19:59:12.256Z,24.60
2017-06-26T20:01:39.256Z,24.40
2017-06-26T20:04:05.436Z,24.40
2017-06-26T20:06:31.737Z,24.30
2017-06-26T20:08:57.945Z,23.60
2017-06-26T20:11:24.135Z,22.30
2017-06-26T20:13:50.377Z,21.50
2017-06-26T20:16:16.557Z,21.30
2017-06-26T20:18:43.489Z,21.40
2017-06-26T20:21:09.721Z,21.40
2017-06-26T20:23:36.649Z,21.50
2017-06-26T20:26:02.839Z,21.50
2017-06-26T20:28:29.038Z,21.80
2017-06-26T20:30:56.002Z,21.50
2017-06-26T20:33:22.213Z,21.50
2017-06-26T20:35:48.428Z,21.30
2017-06-26T20:38:15.375Z,20.90
2017-06-26T20:40:42.388Z,21.10
2017-06-26T20:43:08.549Z,21.10
2017-06-26T20:45:34.748Z,21.50
2017-06-26T20:48:00.981Z,21.80
2017-06-26T20:50:27.163Z,22.00
2017-06-26T20:52:53.380Z,22.00
2017-06-26T20:55:19.600Z,22.00
2017-06-26T20:57:45.843Z,21.90
2017-06-26T21:00:12.058Z,21.70
2017-06-26T21:02:38.247Z,21.50
2017-06-26T21:05:04.531Z,21.00
2017-06-26T21:07:30.715Z,20.70
2017-06-26T21:09:57.623Z,20.80
2017-06-26T21:12:23.829Z,20.80
2017-06-26T21:14:50.000Z,20.90
2017-06-26T21:17:16.200Z,20.90
2017-06-26T21:19:42.399Z,20.60
2017-06-26T21:22:08.615Z,20.50
2017-06-26T21:24:34.819Z,20.30
2017-06-26T21:27:00.991Z,20.30
2017-06-26T21:29:27.189Z,20.30
2017-06-26T21:31:53.367Z,20.20
2017-06-26T21:34:19.580Z,19.90
2017-06-26T21:36:45.782Z,19.70
2017-06-26T21:39:12.025Z,19.50
2017-06-26T21:41:38.199Z,19.30
2017-06-26T21:44:04.434Z,19.20
2017-06-26T21:46:30.611Z,19.00
2017-06-26T21:48:56.784Z,18.90
2017-06-26T21:51:23.012Z,18.70
2017-06-26T21:53:49.179Z,18.70
2017-06-26T21:56:15.392Z,18.70
2017-06-26T21:58:41.559Z,18.60
2017-06-26T22:01:07.815Z,18.60
2017-06-26T22:03:34.036Z,18.50
2017-06-26T22:06:00.216Z,18.30
2017-06-26T22:08:26.423Z,18.20
2017-06-26T22:10:52.587Z,18.20
2017-06-26T22:13:18.784Z,18.20
2017-06-26T22:15:44.953Z,18.30
2017-06-26T22:18:11.157Z,18.20
2017-06-26T22:20:37.331Z,18.20
2017-06-26T22:23:03.532Z,18.30
2017-06-26T22:25:29.733Z,18.00
2017-06-26T22:27:55.907Z,18.20
2017-06-26T22:30:22.122Z,18.30
2017-06-26T22:32:48.320Z,18.10
2017-06-26T22:35:14.514Z,18.10
2017-06-26T22:37:40.692Z,18.30
2017-06-26T22:40:06.896Z,18.30
2017-06-26T22:42:33.115Z,18.40
2017-06-26T22:44:59.308Z,18.30
2017-06-26T22:47:26.248Z,18.00
2017-06-26T22:49:53.179Z,17.90
2017-06-26T22:52:19.399Z,17.80
2017-06-26T22:54:45.581Z,18.10
2017-06-26T22:57:11.783Z,18.20
2017-06-26T22:59:37.978Z,18.20
2017-06-26T23:02:04.179Z,18.40
2017-06-26T23:04:30.371Z,18.50
2017-06-26T23:06:56.594Z,18.60
2017-06-26T23:09:22.763Z,18.70
2017-06-26T23:11:48.947Z,18.80
2017-06-26T23:14:15.152Z,18.80
2017-06-26T23:16:41.403Z,18.80
2017-06-26T23:19:07.594Z,18.80
2017-06-26T23:21:33.787Z,18.80
2017-06-26T23:23:59.997Z,18.70
2017-06-26T23:26:26.184Z,18.70
2017-06-26T23:28:52.412Z,18.70
2017-06-26T23:31:18.593Z,18.90
2017-06-26T23:33:44.816Z,18.70
2017-06-26T23:36:11.061Z,18.70
2017-06-26T23:38:37.243Z,18.70
2017-06-26T23:41:04.184Z,18.70
2017-06-26T23:43:31.099Z,18.70
2017-06-26T23:45:57.300Z,18.70
2017-06-26T23:48:23.484Z,18.70
2017-06-26T23:50:49.667Z,18.60
2017-06-26T23:53:15.859Z,18.70
2017-06-26T23:55:42.031Z,18.70
2017-06-26T23:58:08.224Z,18.70
